Toyama Airport, Japan

11:16 PM JST on August 24, 2016 (GMT +0900)
JR9MAR-WX | | Change Station

Elev 325 ft 36.57 °N, 136.98 °E | Updated 9 seconds ago

Scattered Clouds
Scattered Clouds
77.9 °F
Feels Like 80 °F
N
0.1
Wind Variable Wind from ESE
Gusts 2.2 mph

Today
High -- | Low -- °F
--% Chance of Precip.
Yesterday
High -- | Low -- °F
Precip. -- in
Pressure 29.74 in
Visibility 6.2 miles
Clouds Few 3000 ft
Scattered Clouds 18000 ft
Heat Index 80 °F
Dew Point 75 °F
Humidity 90%
Rainfall in
Snow Depth Not available.
5:15 AM 6:30 PM
Waning Gibbous, 56% visible
METAR RJNK 241400Z 15003KT 9999 FEW030 SCT180 BKN/// 27/23 Q1007
Pressure 29.74 in
Visibility 6.2 miles
Clouds Few 3000 ft
Scattered Clouds 18000 ft
Heat Index 80 °F
Dew Point 75 °F
Humidity 90%
Rainfall in
Snow Depth Not available.
5:15 AM 6:30 PM
Waning Gibbous, 56% visible
METAR RJNK 241400Z 15003KT 9999 FEW030 SCT180 BKN/// 27/23 Q1007

10-Day Weather Forecast

No radar image for this location.
×

Almanac

Astronomy

Aug. 24, 2016 Rise Set
Actual Time
Civil Twilight
Nautical Twilight
Astronomical Twilight
Moon
Length of Visible Light
Length of Day
Tomorrow will be .
, % of the Moon is Illuminated

Today's Extremes

Country Highs Country Lows

Community

WunderPhotos

Upload Photos

1,934,605 photos uploaded!

WunderBlog® & News

Nearby

Air Quality

  Air Quality AQ Index Pollutant
Not available.

Snow Depth

Station Depth Elevation

Earthquake Activity

City Distance Mag. Time & Date
Minimum magnitude displayed is 2.5.

Coastal Water Temperatures

Place Temperature

Stations

Nearby Weather Stations

Station Location Temp. Windchill Dew Point Humidity Wind Precip. Elev Updated Type